Time;durP1;ratioP1;P1;durP2;ratioP2;P2;SDS_P1;SDS_P2;PMS_P1;PMS_P2;Temp;Humidity;BMP_temperature;BMP_pressure;BME280_temperature;BME280_humidity;BME280_pressure;Samples;Min_cycle;Max_cycle;Signal;HPM_P1;HPM_P2
2022/05/14 00:01:48;;;;;;;1.60;1.30;;;11.70;98.00;;;;;;5018287;28;20454;-92
2022/05/14 00:04:27;;;;;;;2.03;1.50;;;11.60;98.00;;;;;;5019417;28;20493;-91
2022/05/14 00:07:13;;;;;;;1.80;1.50;;;11.60;98.00;;;;;;5019427;28;20484;-90
2022/05/14 00:13:06;;;;;;;1.90;1.40;;;11.60;98.00;;;;;;5019109;28;20551;-90
2022/05/14 00:15:50;;;;;;;1.33;1.20;;;11.50;98.00;;;;;;5018043;28;20537;-90
2022/05/14 00:18:28;;;;;;;;;;;;;;;;;;;;;
2022/05/14 00:21:24;;;;;;;1.40;1.20;;;11.50;98.00;;;;;;5018607;28;20446;-91
2022/05/14 00:23:58;;;;;;;1.20;1.00;;;11.60;98.00;;;;;;5017857;28;20498;-91
2022/05/14 00:26:29;;;;;;;1.67;1.60;;;11.70;98.00;;;;;;5019353;28;20482;-90
2022/05/14 00:29:03;;;;;;;2.07;1.83;;;11.50;98.00;;;;;;5018076;28;20482;-90
2022/05/14 00:31:30;;;;;;;1.50;1.30;;;11.60;98.00;;;;;;5017702;28;20468;-90
2022/05/14 00:34:04;;;;;;;1.80;1.50;;;11.60;98.00;;;;;;5017395;28;20463;-91
2022/05/14 00:36:47;;;;;;;1.60;1.40;;;11.50;98.00;;;;;;5017952;28;20492;-90
2022/05/14 00:39:31;;;;;;;1.70;1.43;;;11.40;98.00;;;;;;5018626;28;20467;-90
2022/05/14 00:45:07;;;;;;;2.87;1.50;;;11.50;98.00;;;;;;5017648;28;20460;-90
2022/05/14 00:48:20;;;;;;;;;;;;;;;;;;;;;
2022/05/14 00:50:58;;;;;;;1.87;1.40;;;11.10;98.00;;;;;;5019324;28;20452;-91
2022/05/14 00:53:53;;;;;;;1.97;1.53;;;11.10;98.00;;;;;;5013546;28;20459;-93
2022/05/14 00:56:32;;;;;;;1.50;1.27;;;10.90;98.00;;;;;;5012632;28;20480;-91
2022/05/14 00:59:10;;;;;;;1.40;1.37;;;11.00;98.00;;;;;;5012382;28;20459;-90
2022/05/14 01:01:46;;;;;;;4.50;2.67;;;10.90;98.00;;;;;;5012679;28;20468;-91
2022/05/14 01:04:24;;;;;;;1.40;1.30;;;10.90;98.00;;;;;;5012229;28;20487;-91
2022/05/14 01:07:04;;;;;;;1.60;1.27;;;10.80;98.00;;;;;;5012157;28;20484;-91
2022/05/14 01:09:43;;;;;;;2.80;1.63;;;10.80;98.00;;;;;;5012926;28;20469;-91
2022/05/14 01:12:20;;;;;;;1.20;1.10;;;10.90;98.00;;;;;;5012736;28;20480;-92
2022/05/14 01:14:51;;;;;;;2.80;1.77;;;10.90;98.00;;;;;;5011836;28;20462;-91
2022/05/14 01:17:23;;;;;;;3.90;1.87;;;10.80;98.00;;;;;;5012332;28;20467;-91
2022/05/14 01:19:59;;;;;;;1.73;1.30;;;10.70;98.00;;;;;;5012118;28;20997;-91
2022/05/14 01:22:47;;;;;;;1.60;1.47;;;10.70;98.00;;;;;;5014820;28;20949;-90
2022/05/14 01:28:15;;;;;;;1.70;1.20;;;10.90;98.00;;;;;;5016206;28;20935;-91
2022/05/14 01:30:53;;;;;;;2.13;1.50;;;10.90;98.00;;;;;;5016443;28;20896;-91
2022/05/14 01:33:31;;;;;;;2.00;1.50;;;11.00;98.00;;;;;;5016281;28;20453;-90
2022/05/14 01:35:59;;;;;;;2.00;1.40;;;10.90;98.00;;;;;;5015968;28;20547;-91
2022/05/14 01:38:37;;;;;;;2.73;1.90;;;10.90;98.00;;;;;;5015950;28;20871;-90
2022/05/14 01:41:10;;;;;;;1.90;1.53;;;10.90;98.00;;;;;;5016517;28;20463;-91
2022/05/14 01:43:47;;;;;;;1.30;1.00;;;10.80;98.00;;;;;;5015952;28;20483;-91
2022/05/14 01:46:16;;;;;;;1.50;1.13;;;10.60;98.00;;;;;;5016007;28;20490;-90
2022/05/14 01:48:48;;;;;;;1.30;1.30;;;10.50;98.00;;;;;;5015633;28;20459;-91
2022/05/14 01:51:18;;;;;;;1.50;1.23;;;10.50;98.00;;;;;;5015531;28;20463;-91
2022/05/14 01:53:54;;;;;;;1.67;1.60;;;10.40;98.00;;;;;;5016284;28;21057;-90
2022/05/14 01:56:27;;;;;;;1.30;1.20;;;10.50;98.00;;;;;;5015625;28;20506;-90
2022/05/14 01:58:59;;;;;;;1.40;1.27;;;10.50;98.00;;;;;;5016085;28;20837;-91
2022/05/14 02:01:29;;;;;;;1.40;1.13;;;10.40;98.00;;;;;;5015716;28;20483;-91
2022/05/14 02:04:02;;;;;;;2.40;1.30;;;10.30;98.00;;;;;;5015806;28;20995;-92
2022/05/14 02:06:30;;;;;;;1.70;1.30;;;10.40;98.00;;;;;;5016041;28;20999;-91
2022/05/14 02:09:14;;;;;;;2.23;1.53;;;10.30;98.00;;;;;;5015534;28;20462;-91
2022/05/14 02:11:47;;;;;;;1.57;1.40;;;10.30;98.00;;;;;;5015137;28;20466;-90
2022/05/14 02:14:24;;;;;;;1.60;1.30;;;10.30;98.00;;;;;;5015641;28;20458;-91
2022/05/14 02:16:52;;;;;;;1.30;1.00;;;10.10;98.00;;;;;;5015265;28;20488;-91
2022/05/14 02:19:21;;;;;;;1.70;1.30;;;10.20;98.00;;;;;;5015000;28;21002;-90
2022/05/14 02:22:06;;;;;;;1.50;1.30;;;10.10;98.00;;;;;;5015256;28;20949;-90
2022/05/14 02:24:38;;;;;;;1.70;1.47;;;10.00;98.00;;;;;;5015371;28;21012;-91
2022/05/14 02:27:08;;;;;;;1.90;1.23;;;10.00;98.00;;;;;;5015033;28;20589;-90
2022/05/14 02:32:43;;;;;;;2.00;1.43;;;10.00;98.00;;;;;;5103550;27;1332101;-64
2022/05/14 02:35:10;;;;;;;1.20;1.00;;;9.90;98.00;;;;;;5130540;28;20568;-64
2022/05/14 02:37:37;;;;;;;1.30;1.20;;;10.00;98.00;;;;;;5112354;28;20453;-64
2022/05/14 02:40:06;;;;;;;1.93;1.60;;;9.90;98.00;;;;;;5130404;28;20519;-64
2022/05/14 02:42:33;;;;;;;1.33;1.07;;;10.00;98.00;;;;;;5130357;28;20507;-64
2022/05/14 02:45:01;;;;;;;1.30;1.20;;;10.10;98.00;;;;;;5129883;28;20464;-64
2022/05/14 02:47:30;;;;;;;1.57;1.40;;;10.30;98.00;;;;;;5130438;28;20793;-64
2022/05/14 02:49:59;;;;;;;1.30;1.23;;;10.20;98.00;;;;;;5112483;28;20497;-64
2022/05/14 02:52:26;;;;;;;1.30;1.17;;;10.10;98.00;;;;;;5130154;28;20478;-64
2022/05/14 02:54:53;;;;;;;1.47;1.20;;;10.30;98.00;;;;;;5130106;28;20981;-64
2022/05/14 02:57:21;;;;;;;1.20;1.10;;;10.00;98.00;;;;;;5111797;28;20464;-64
2022/05/14 02:59:48;;;;;;;1.30;1.10;;;10.20;98.00;;;;;;5129637;28;20450;-64
2022/05/14 03:02:15;;;;;;;1.30;1.20;;;9.90;98.00;;;;;;5129644;28;20514;-64
2022/05/14 03:04:44;;;;;;;2.80;1.20;;;10.00;98.00;;;;;;5129777;28;20439;-64
2022/05/14 03:07:15;;;;;;;1.67;1.13;;;10.10;98.00;;;;;;5129558;28;20458;-64
2022/05/14 03:09:43;;;;;;;1.40;1.20;;;10.10;98.00;;;;;;5129092;28;20473;-64
2022/05/14 03:12:13;;;;;;;2.43;1.37;;;10.00;98.00;;;;;;5129134;28;20484;-64
2022/05/14 03:14:40;;;;;;;1.60;1.20;;;10.00;98.00;;;;;;5129308;28;20511;-64
2022/05/14 03:17:08;;;;;;;1.73;1.37;;;9.90;98.00;;;;;;5129551;28;20454;-64
2022/05/14 03:19:35;;;;;;;1.23;1.20;;;9.70;98.00;;;;;;5129325;28;20446;-64
2022/05/14 03:22:03;;;;;;;1.23;1.10;;;9.80;98.00;;;;;;5111269;28;20875;-64
2022/05/14 03:24:32;;;;;;;6.33;1.73;;;9.60;98.00;;;;;;5129223;28;20450;-64
2022/05/14 03:27:00;;;;;;;1.20;1.13;;;9.80;98.00;;;;;;5129328;28;20441;-64
2022/05/14 03:29:27;;;;;;;1.73;1.43;;;9.70;98.00;;;;;;5129152;28;20457;-64
2022/05/14 03:31:55;;;;;;;2.50;1.30;;;9.70;98.00;;;;;;5129073;28;20482;-64
2022/05/14 03:34:22;;;;;;;2.13;1.53;;;9.80;98.00;;;;;;5129197;28;20856;-64
2022/05/14 03:36:49;;;;;;;1.30;1.07;;;9.90;98.00;;;;;;5129282;28;20462;-64
2022/05/14 03:39:17;;;;;;;1.20;1.20;;;9.80;98.00;;;;;;5128967;28;20993;-64
2022/05/14 03:41:46;;;;;;;1.20;1.00;;;9.70;98.00;;;;;;5129331;28;20473;-64
2022/05/14 03:44:13;;;;;;;1.43;1.20;;;9.60;98.00;;;;;;5114983;28;20462;-64
2022/05/14 03:46:42;;;;;;;1.97;1.20;;;9.60;98.00;;;;;;5115496;28;20466;-64
2022/05/14 03:49:10;;;;;;;1.43;1.43;;;9.50;98.00;;;;;;5115390;28;20516;-64
2022/05/14 03:51:37;;;;;;;1.60;1.40;;;9.50;98.00;;;;;;5115048;28;20477;-64
2022/05/14 03:54:06;;;;;;;1.40;1.20;;;9.60;98.00;;;;;;5115269;28;20455;-64
2022/05/14 03:56:33;;;;;;;1.50;1.10;;;9.60;98.00;;;;;;5115444;28;20484;-64
2022/05/14 03:59:03;;;;;;;2.07;1.67;;;9.60;98.00;;;;;;5115066;28;20455;-64
2022/05/14 04:01:31;;;;;;;1.77;1.53;;;9.80;98.00;;;;;;5115294;28;20462;-64
2022/05/14 04:03:58;;;;;;;1.63;1.07;;;9.80;98.00;;;;;;5114851;28;21094;-64
2022/05/14 04:06:25;;;;;;;1.30;1.23;;;9.80;98.00;;;;;;5114973;28;20500;-64
2022/05/14 04:08:52;;;;;;;1.30;1.20;;;9.60;98.00;;;;;;5114730;28;20812;-64
2022/05/14 04:11:19;;;;;;;1.20;1.10;;;9.50;98.00;;;;;;5114706;28;20483;-64
2022/05/14 04:13:50;;;;;;;1.30;1.07;;;9.50;98.00;;;;;;5114961;28;20520;-64
2022/05/14 04:16:19;;;;;;;1.30;1.10;;;9.70;98.00;;;;;;5114554;28;20462;-64
2022/05/14 04:18:46;;;;;;;1.30;1.23;;;9.50;98.00;;;;;;5114541;28;20457;-64
2022/05/14 04:21:13;;;;;;;1.30;1.13;;;9.60;98.00;;;;;;5114655;28;20531;-64
2022/05/14 04:23:40;;;;;;;1.20;1.00;;;9.60;98.00;;;;;;5114386;28;20451;-64
2022/05/14 04:26:07;;;;;;;1.30;1.00;;;9.60;98.00;;;;;;5114535;28;20463;-64
2022/05/14 04:28:34;;;;;;;1.20;1.00;;;9.50;98.00;;;;;;5114410;28;20465;-64
2022/05/14 04:31:04;;;;;;;1.30;1.20;;;9.60;98.00;;;;;;5114330;28;20456;-64
2022/05/14 04:33:32;;;;;;;1.60;1.50;;;9.60;98.00;;;;;;5114218;28;20457;-64
2022/05/14 04:36:00;;;;;;;11.87;1.83;;;9.50;98.00;;;;;;5114435;28;20452;-64
2022/05/14 04:38:27;;;;;;;1.80;1.40;;;9.60;98.00;;;;;;5114058;28;20453;-64
2022/05/14 04:40:54;;;;;;;1.63;1.20;;;9.80;98.00;;;;;;5114444;28;20455;-64
2022/05/14 04:43:21;;;;;;;1.40;1.30;;;9.70;98.00;;;;;;5114301;28;20801;-64
2022/05/14 04:45:48;;;;;;;1.20;1.00;;;9.60;98.00;;;;;;5114318;28;20913;-64
2022/05/14 04:48:16;;;;;;;1.40;1.10;;;9.70;98.00;;;;;;5114284;28;20981;-64
2022/05/14 04:50:46;;;;;;;1.43;1.17;;;9.70;98.00;;;;;;5096180;28;20460;-64
2022/05/14 04:53:17;;;;;;;1.40;1.10;;;9.80;98.00;;;;;;5113955;28;20507;-64
2022/05/14 04:55:44;;;;;;;1.87;1.53;;;9.80;98.00;;;;;;5113137;28;20458;-64
2022/05/14 04:58:13;;;;;;;1.30;1.10;;;9.80;98.00;;;;;;5114229;28;20496;-64
2022/05/14 05:00:41;;;;;;;1.57;1.20;;;9.90;98.00;;;;;;5114264;28;20594;-64
2022/05/14 05:03:19;;;;;;;1.40;1.20;;;10.00;98.00;;;;;;5113821;28;20487;-64
2022/05/14 05:05:50;;;;;;;2.50;1.30;;;10.10;98.00;;;;;;5097897;28;20539;-64
2022/05/14 05:08:17;;;;;;;2.50;1.80;;;10.30;98.00;;;;;;5112970;28;20467;-64
2022/05/14 05:10:45;;;;;;;1.43;1.10;;;10.40;98.00;;;;;;5113799;28;20513;-64
2022/05/14 05:13:14;;;;;;;1.20;1.13;;;10.50;98.00;;;;;;5113324;28;20491;-64
2022/05/14 05:15:41;;;;;;;1.30;1.10;;;10.30;98.00;;;;;;5113456;28;20923;-64
2022/05/14 05:18:10;;;;;;;1.93;1.30;;;10.30;98.00;;;;;;5113405;28;20452;-64
2022/05/14 05:20:39;;;;;;;1.27;1.13;;;10.10;98.00;;;;;;5113326;28;20986;-64
2022/05/14 05:23:12;;;;;;;1.77;1.67;;;10.10;98.00;;;;;;5113477;28;20508;-64
2022/05/14 05:25:40;;;;;;;1.30;1.27;;;10.10;98.00;;;;;;5113314;28;20455;-64
2022/05/14 05:28:07;;;;;;;1.50;1.30;;;10.10;98.00;;;;;;5095215;28;20510;-64
2022/05/14 05:30:35;;;;;;;1.43;1.37;;;10.20;98.00;;;;;;5113034;28;20465;-64
2022/05/14 05:33:03;;;;;;;1.70;1.60;;;10.10;98.00;;;;;;5112370;28;20489;-64
2022/05/14 05:35:30;;;;;;;2.17;1.50;;;10.20;98.00;;;;;;5094660;28;20951;-64
2022/05/14 05:37:58;;;;;;;1.60;1.30;;;10.40;98.00;;;;;;5112350;28;20455;-64
2022/05/14 05:40:26;;;;;;;2.13;1.30;;;10.60;98.00;;;;;;5112318;28;20455;-64
2022/05/14 05:42:53;;;;;;;1.33;1.20;;;10.80;98.00;;;;;;5094395;28;20459;-64
2022/05/14 05:45:20;;;;;;;1.97;1.80;;;10.90;98.00;;;;;;5112866;28;20497;-64
2022/05/14 05:47:48;;;;;;;1.60;1.20;;;11.20;98.00;;;;;;5113036;28;20504;-64
2022/05/14 05:50:15;;;;;;;2.27;1.53;;;11.30;98.00;;;;;;5095039;28;20451;-64
2022/05/14 05:52:42;;;;;;;1.77;1.43;;;11.50;98.00;;;;;;5112900;28;20479;-64
2022/05/14 05:57:52;;;;;;;1.80;1.47;;;11.60;98.00;;;;;;5078733;28;20461;-64
2022/05/14 06:00:24;;;;;;;2.90;1.43;;;11.70;98.00;;;;;;5112979;28;20460;-64
2022/05/14 06:02:51;;;;;;;1.30;1.17;;;11.80;98.00;;;;;;5112993;28;20506;-64
2022/05/14 06:05:18;;;;;;;1.83;1.40;;;12.00;98.00;;;;;;5112587;28;20464;-64
2022/05/14 06:07:45;;;;;;;2.20;1.67;;;12.20;98.00;;;;;;5095174;28;20818;-64
2022/05/14 06:10:16;;;;;;;1.83;1.53;;;12.30;98.00;;;;;;5112571;28;20872;-64
2022/05/14 06:12:43;;;;;;;1.87;1.50;;;12.40;98.00;;;;;;5112511;28;20475;-64
2022/05/14 06:15:14;;;;;;;3.00;1.53;;;12.40;98.00;;;;;;5112227;28;20487;-63
2022/05/14 06:17:43;;;;;;;1.50;1.20;;;12.60;98.00;;;;;;5112334;28;20511;-64
2022/05/14 06:20:13;;;;;;;1.30;1.30;;;12.70;98.00;;;;;;5094091;28;20468;-63
2022/05/14 06:22:44;;;;;;;1.53;1.40;;;12.80;98.00;;;;;;5112597;28;20540;-61
2022/05/14 06:25:13;;;;;;;1.47;1.30;;;12.90;98.00;;;;;;5112217;28;20449;-62
2022/05/14 06:27:40;;;;;;;1.33;1.27;;;13.00;98.00;;;;;;5112344;28;20461;-62
2022/05/14 06:30:09;;;;;;;1.60;1.30;;;13.20;98.00;;;;;;5112264;28;20949;-61
2022/05/14 06:32:38;;;;;;;1.67;1.47;;;13.40;98.00;;;;;;5112039;28;20487;-61
2022/05/14 06:35:06;;;;;;;2.33;1.50;;;13.50;98.00;;;;;;5112224;28;20461;-61
2022/05/14 06:37:33;;;;;;;1.70;1.50;;;13.60;98.00;;;;;;5112044;28;20460;-61
2022/05/14 06:40:03;;;;;;;1.53;1.40;;;13.80;98.00;;;;;;5112013;28;20528;-61
2022/05/14 06:42:32;;;;;;;2.40;1.27;;;13.90;98.00;;;;;;5112162;28;20456;-62
2022/05/14 06:44:59;;;;;;;2.50;1.50;;;14.00;98.00;;;;;;5112177;28;20469;-62
2022/05/14 06:47:26;;;;;;;1.97;1.63;;;14.00;98.00;;;;;;5111979;28;20457;-61
2022/05/14 06:49:55;;;;;;;2.07;1.40;;;14.10;98.00;;;;;;5111866;28;20948;-61
2022/05/14 06:52:22;;;;;;;2.80;1.83;;;14.30;98.00;;;;;;5111973;28;20533;-61
2022/05/14 06:54:52;;;;;;;2.00;1.77;;;14.30;98.00;;;;;;5112166;28;20462;-61
2022/05/14 06:57:20;;;;;;;2.73;1.73;;;14.40;98.00;;;;;;5112191;28;20452;-62
2022/05/14 06:59:47;;;;;;;2.33;1.87;;;14.50;98.00;;;;;;5112297;28;20454;-61
2022/05/14 07:02:16;;;;;;;1.50;1.40;;;14.70;98.00;;;;;;5112415;28;20867;-62
2022/05/14 07:07:30;;;;;;;1.50;1.50;;;14.90;98.00;;;;;;5112286;28;20467;-61
2022/05/14 07:09:59;;;;;;;1.93;1.80;;;15.00;98.00;;;;;;5112013;28;20447;-61
2022/05/14 07:12:26;;;;;;;1.30;1.30;;;15.20;98.00;;;;;;5112057;28;20477;-62
2022/05/14 07:14:54;;;;;;;1.60;1.53;;;15.30;98.00;;;;;;5111908;28;20465;-62
2022/05/14 07:17:21;;;;;;;1.60;1.37;;;15.30;98.00;;;;;;5112260;28;20836;-61
2022/05/14 07:19:50;;;;;;;2.50;1.93;;;15.50;98.00;;;;;;5115591;28;20511;-61
2022/05/14 07:22:17;;;;;;;1.80;1.60;;;15.70;98.00;;;;;;5115553;28;20454;-61
2022/05/14 07:24:46;;;;;;;1.77;1.50;;;15.80;98.00;;;;;;5115644;28;20465;-61
2022/05/14 07:27:13;;;;;;;1.50;1.40;;;15.90;98.00;;;;;;5115499;28;20510;-61
2022/05/14 07:29:42;;;;;;;2.20;1.80;;;16.00;98.00;;;;;;5115453;28;20462;-61
2022/05/14 07:32:10;;;;;;;2.40;1.57;;;16.10;98.00;;;;;;5115324;28;20482;-61
2022/05/14 07:34:37;;;;;;;2.10;1.50;;;16.30;98.00;;;;;;5119581;27;20893;-61
2022/05/14 07:37:08;;;;;;;2.60;1.30;;;16.40;98.00;;;;;;5133241;27;20461;-62
2022/05/14 07:39:41;;;;;;;1.87;1.50;;;16.60;98.00;;;;;;5133176;27;20976;-62
2022/05/14 07:42:15;;;;;;;2.33;1.50;;;17.10;98.00;;;;;;5133196;27;20450;-62
2022/05/14 07:44:46;;;;;;;3.00;1.50;;;17.70;98.00;;;;;;5133082;27;20449;-62
2022/05/14 07:47:14;;;;;;;2.37;1.80;;;18.30;98.00;;;;;;5133178;27;20868;-62
2022/05/14 07:49:43;;;;;;;1.73;1.60;;;18.60;98.00;;;;;;5112218;27;20496;-63
2022/05/14 07:52:10;;;;;;;2.23;1.47;;;18.90;98.00;;;;;;5133368;27;20473;-62
2022/05/14 07:54:37;;;;;;;2.07;1.67;;;19.20;98.00;;;;;;5132943;27;20446;-62
2022/05/14 07:57:06;;;;;;;2.70;1.53;;;19.40;98.00;;;;;;5133274;27;20943;-62
2022/05/14 07:59:38;;;;;;;2.10;1.80;;;19.70;98.00;;;;;;5132868;27;20466;-62
2022/05/14 08:02:20;;;;;;;1.73;1.50;;;20.00;98.00;;;;;;5133110;27;20491;-62
2022/05/14 08:04:48;;;;;;;1.70;1.50;;;20.10;96.50;;;;;;5132889;27;20471;-62
2022/05/14 08:07:15;;;;;;;1.70;1.40;;;20.30;97.50;;;;;;5132727;27;20455;-62
2022/05/14 08:09:42;;;;;;;1.60;1.50;;;20.40;94.30;;;;;;5128459;27;20787;-62
2022/05/14 08:12:11;;;;;;;1.90;1.60;;;20.20;92.40;;;;;;5112173;27;21066;-61
2022/05/14 08:14:40;;;;;;;3.60;1.67;;;20.10;90.60;;;;;;5125489;27;20856;-60
2022/05/14 08:17:08;;;;;;;1.70;1.50;;;19.70;90.70;;;;;;5114231;28;20462;-61
2022/05/14 08:19:35;;;;;;;1.30;1.20;;;19.70;92.10;;;;;;5114796;28;20473;-60
2022/05/14 08:24:47;;;;;;;1.30;1.30;;;19.70;90.40;;;;;;5114482;28;20438;-61
2022/05/14 08:27:14;;;;;;;3.50;1.60;;;19.70;91.20;;;;;;5114106;28;20451;-61
2022/05/14 08:29:48;;;;;;;1.43;1.30;;;19.70;90.20;;;;;;5113808;28;20512;-61
2022/05/14 08:32:18;;;;;;;1.40;1.30;;;19.70;90.90;;;;;;5113337;28;20562;-61
2022/05/14 08:34:45;;;;;;;1.60;1.40;;;19.80;94.40;;;;;;5113441;28;20502;-62
2022/05/14 08:37:12;;;;;;;1.50;1.30;;;19.90;91.00;;;;;;5113534;28;20485;-62
2022/05/14 08:39:40;;;;;;;1.93;1.40;;;20.00;91.10;;;;;;5114105;28;20447;-63
2022/05/14 08:42:10;;;;;;;1.50;1.27;;;20.10;90.90;;;;;;5096129;28;20941;-62
2022/05/14 08:44:41;;;;;;;1.60;1.60;;;20.20;89.20;;;;;;5114205;28;20463;-62
2022/05/14 08:47:26;;;;;;;1.73;1.50;;;20.20;88.50;;;;;;5114270;28;20510;-62
2022/05/14 08:49:56;;;;;;;2.03;1.60;;;20.30;89.30;;;;;;5114119;28;20466;-62
2022/05/14 08:52:27;;;;;;;1.40;1.30;;;20.30;87.90;;;;;;5113940;28;20455;-62
2022/05/14 08:54:58;;;;;;;1.30;1.17;;;20.40;88.10;;;;;;5113976;28;20925;-62
2022/05/14 08:57:35;;;;;;;1.50;1.30;;;20.30;86.50;;;;;;5114019;28;20463;-62
2022/05/14 09:00:03;;;;;;;3.17;1.97;;;20.40;86.20;;;;;;5114087;28;20465;-62
2022/05/14 09:02:34;;;;;;;2.63;1.40;;;20.30;86.40;;;;;;5113896;28;20487;-62
2022/05/14 09:05:06;;;;;;;1.80;1.47;;;20.30;85.80;;;;;;5113935;28;20462;-61
2022/05/14 09:07:33;;;;;;;3.20;2.10;;;20.40;85.80;;;;;;5113922;28;20451;-62
2022/05/14 09:10:00;;;;;;;1.63;1.20;;;20.50;86.60;;;;;;5113835;28;20452;-63
2022/05/14 09:12:31;;;;;;;1.43;1.30;;;20.70;84.50;;;;;;5113795;28;20480;-63
2022/05/14 09:15:06;;;;;;;1.63;1.40;;;20.90;84.30;;;;;;5113765;28;20936;-62
2022/05/14 09:17:35;;;;;;;1.50;1.40;;;21.00;81.10;;;;;;5112618;28;20474;-63
2022/05/14 09:20:06;;;;;;;1.37;1.23;;;21.00;82.00;;;;;;5112613;28;20462;-63
2022/05/14 09:22:45;;;;;;;1.50;1.30;;;21.20;84.60;;;;;;5113308;28;20873;-62
2022/05/14 09:25:21;;;;;;;1.30;1.30;;;21.40;80.80;;;;;;5113019;28;20455;-62
2022/05/14 09:27:55;;;;;;;1.30;1.20;;;21.70;83.20;;;;;;5113587;28;20549;-61
2022/05/14 09:30:30;;;;;;;1.47;1.40;;;21.80;83.40;;;;;;5112947;28;20458;-62
2022/05/14 09:33:00;;;;;;;1.70;1.33;;;22.00;83.20;;;;;;5113270;28;20478;-61
2022/05/14 09:35:29;;;;;;;1.50;1.40;;;22.10;83.70;;;;;;5113158;28;20455;-61
2022/05/14 09:38:12;;;;;;;2.00;1.50;;;22.30;85.20;;;;;;5113216;28;20459;-62
2022/05/14 09:40:40;;;;;;;2.43;1.50;;;22.40;84.60;;;;;;5112697;28;20462;-61
2022/05/14 09:43:12;;;;;;;2.60;1.60;;;22.50;82.90;;;;;;5113031;28;20479;-62
2022/05/14 09:45:41;;;;;;;1.60;1.50;;;22.40;82.60;;;;;;5113150;28;20455;-62
2022/05/14 09:48:31;;;;;;;1.60;1.43;;;22.40;84.30;;;;;;5113402;28;20520;-62
2022/05/14 09:51:01;;;;;;;1.90;1.47;;;22.70;83.00;;;;;;5176389;22;20562;-62
2022/05/14 09:53:31;;;;;;;1.80;1.50;;;22.80;84.10;;;;;;5071475;28;20484;-62
2022/05/14 09:56:23;;;;;;;1.87;1.33;;;22.70;82.20;;;;;;5073652;28;20464;-68
2022/05/14 09:59:01;;;;;;;1.60;1.33;;;22.80;82.10;;;;;;5073943;28;20457;-68
2022/05/14 10:01:32;;;;;;;2.40;1.43;;;23.00;82.70;;;;;;5073460;28;20456;-69
2022/05/14 10:04:31;;;;;;;1.60;1.50;;;23.00;83.20;;;;;;5071627;28;20460;-63
2022/05/14 10:07:05;;;;;;;1.40;1.40;;;23.10;81.00;;;;;;5071345;28;20460;-63
2022/05/14 10:09:39;;;;;;;2.17;1.50;;;23.10;81.10;;;;;;5071815;28;20460;-63
2022/05/14 10:12:21;;;;;;;2.07;1.60;;;23.20;81.60;;;;;;5071744;28;20482;-63
2022/05/14 10:15:02;;;;;;;2.40;1.70;;;23.20;81.10;;;;;;5071426;28;20839;-63
2022/05/14 10:17:43;;;;;;;1.70;1.40;;;23.30;82.50;;;;;;5071281;28;20476;-63
2022/05/14 10:20:37;;;;;;;2.07;1.50;;;23.40;83.80;;;;;;5053198;28;20961;-63
2022/05/14 10:29:16;;;;;;;1.70;1.40;;;23.40;79.90;;;;;;5071216;28;20497;-63
2022/05/14 10:31:51;;;;;;;3.07;1.47;;;23.60;77.30;;;;;;5070994;28;20467;-63
2022/05/14 10:34:22;;;;;;;1.50;1.40;;;23.70;77.90;;;;;;5070917;28;20823;-63
2022/05/14 10:36:58;;;;;;;1.40;1.27;;;23.90;80.70;;;;;;5070629;28;20547;-63
2022/05/14 10:39:35;;;;;;;2.17;1.70;;;24.00;78.60;;;;;;5070908;28;20457;-63
2022/05/14 10:42:11;;;;;;;2.30;1.63;;;24.20;79.60;;;;;;5070867;28;20974;-63
2022/05/14 10:44:46;;;;;;;1.60;1.20;;;24.30;76.80;;;;;;5070895;28;20455;-63
2022/05/14 10:47:15;;;;;;;2.47;1.47;;;24.40;77.40;;;;;;5071098;28;20464;-63
2022/05/14 10:49:49;;;;;;;2.03;1.60;;;24.60;73.70;;;;;;5070795;28;20809;-64
2022/05/14 10:52:18;;;;;;;2.10;1.57;;;24.70;76.80;;;;;;5071392;28;20449;-63
2022/05/14 10:54:46;;;;;;;3.90;1.40;;;24.80;77.10;;;;;;5075476;28;20530;-63
2022/05/14 10:57:42;;;;;;;1.90;1.53;;;25.00;74.70;;;;;;5075647;28;20456;-63
2022/05/14 11:00:30;;;;;;;1.60;1.50;;;25.10;74.90;;;;;;5029314;28;20469;-63
2022/05/14 11:03:02;;;;;;;1.93;1.40;;;25.30;74.40;;;;;;5075089;28;20452;-63
2022/05/14 11:05:33;;;;;;;1.77;1.57;;;25.40;76.30;;;;;;5075554;28;20480;-63
2022/05/14 11:08:13;;;;;;;1.50;1.50;;;25.50;71.30;;;;;;5075369;28;20457;-63
2022/05/14 11:10:41;;;;;;;1.63;1.37;;;25.60;72.40;;;;;;5075256;28;20543;-63
2022/05/14 11:13:17;;;;;;;2.37;1.77;;;25.80;68.20;;;;;;5057909;28;20941;-62
2022/05/14 11:15:45;;;;;;;1.43;1.33;;;25.90;69.30;;;;;;5075024;28;20459;-63
2022/05/14 11:18:14;;;;;;;1.63;1.47;;;25.70;64.90;;;;;;5075221;28;20456;-64
2022/05/14 11:20:55;;;;;;;2.37;1.70;;;25.80;68.00;;;;;;5074939;28;20463;-64
2022/05/14 11:23:24;;;;;;;1.80;1.67;;;26.10;71.50;;;;;;5075238;28;20531;-63
2022/05/14 11:26:08;;;;;;;1.73;1.50;;;26.30;72.00;;;;;;5074734;28;20514;-63
2022/05/14 11:28:37;;;;;;;2.20;1.80;;;26.40;69.60;;;;;;5074756;28;20498;-64
2022/05/14 11:31:15;;;;;;;2.37;1.60;;;26.30;68.30;;;;;;5075218;28;20479;-64
2022/05/14 11:33:45;;;;;;;2.30;1.53;;;26.50;71.30;;;;;;5074618;28;20480;-63
2022/05/14 11:36:25;;;;;;;2.27;1.83;;;26.80;70.10;;;;;;5075005;28;20788;-63
2022/05/14 11:39:31;;;;;;;2.00;1.60;;;26.80;67.70;;;;;;5074692;28;20465;-63
2022/05/14 11:42:29;;;;;;;2.80;1.70;;;26.90;65.60;;;;;;5074837;28;20453;-63
2022/05/14 11:45:12;;;;;;;1.30;1.20;;;26.80;66.80;;;;;;5074418;28;20460;-64
2022/05/14 11:48:01;;;;;;;1.90;1.60;;;27.10;68.00;;;;;;5074042;28;20465;-63
2022/05/14 11:50:33;;;;;;;1.87;1.60;;;27.30;66.50;;;;;;5074013;28;20708;-64
2022/05/14 11:53:08;;;;;;;2.60;2.00;;;27.50;65.90;;;;;;5073969;28;20851;-63
2022/05/14 11:55:42;;;;;;;1.70;1.50;;;27.60;68.20;;;;;;5073813;28;20471;-62
2022/05/14 11:58:18;;;;;;;1.90;1.63;;;27.80;68.10;;;;;;5073672;28;20461;-62
2022/05/14 12:00:48;;;;;;;1.60;1.60;;;27.90;66.60;;;;;;5073881;28;20526;-62
2022/05/14 12:03:23;;;;;;;2.10;1.50;;;27.90;64.20;;;;;;5073213;28;20495;-63
2022/05/14 12:05:55;;;;;;;2.27;1.40;;;28.10;64.10;;;;;;5073570;28;20953;-62
2022/05/14 12:08:43;;;;;;;1.80;1.50;;;28.30;63.40;;;;;;5071879;28;21117;-63
2022/05/14 12:11:30;;;;;;;1.83;1.50;;;28.60;65.10;;;;;;5074304;28;20583;-62
2022/05/14 12:14:08;;;;;;;1.80;1.53;;;28.80;60.40;;;;;;5071154;28;20516;-63
2022/05/14 12:16:38;;;;;;;4.27;1.80;;;28.60;62.70;;;;;;5071531;28;20502;-63
2022/05/14 12:19:09;;;;;;;2.03;1.60;;;28.80;64.70;;;;;;5071561;28;20461;-65
2022/05/14 12:21:37;;;;;;;1.53;1.53;;;28.90;65.30;;;;;;5070605;28;20449;-64
2022/05/14 12:24:05;;;;;;;2.07;1.90;;;29.10;65.70;;;;;;5071343;28;20962;-64
2022/05/14 12:26:35;;;;;;;1.60;1.50;;;29.40;64.60;;;;;;5052550;28;20460;-65
2022/05/14 12:29:13;;;;;;;2.80;1.63;;;29.40;65.00;;;;;;5065738;28;20457;-64
2022/05/14 12:34:33;;;;;;;1.70;1.53;;;29.40;64.70;;;;;;5070699;28;21116;-63
2022/05/14 12:37:11;;;;;;;1.73;1.70;;;29.40;66.00;;;;;;5070733;28;20463;-63
2022/05/14 12:39:42;;;;;;;2.30;1.60;;;29.30;62.50;;;;;;5070353;28;20999;-63
2022/05/14 12:42:12;;;;;;;1.50;1.47;;;29.20;64.60;;;;;;5258687;22;20512;-63
2022/05/14 12:47:08;;;;;;;1.80;1.50;;;29.30;64.10;;;;;;5060805;28;20983;-63
2022/05/14 12:54:49;;;;;;;2.00;1.80;;;29.00;61.40;;;;;;5028749;28;20521;-63
2022/05/14 12:57:18;;;;;;;1.63;1.50;;;29.30;63.60;;;;;;5030127;28;20462;-63
2022/05/14 12:59:45;;;;;;;1.77;1.60;;;29.50;63.00;;;;;;5013177;28;20459;-63
2022/05/14 13:02:16;;;;;;;1.60;1.60;;;29.70;63.30;;;;;;5030871;28;20461;-63
2022/05/14 13:04:50;;;;;;;1.63;1.50;;;29.70;62.20;;;;;;5013216;28;20520;-64
2022/05/14 13:07:18;;;;;;;1.70;1.57;;;29.70;62.30;;;;;;5030593;28;20983;-64
2022/05/14 13:09:45;;;;;;;1.70;1.50;;;29.70;62.40;;;;;;5028950;28;20462;-63
2022/05/14 13:12:28;;;;;;;2.27;1.60;;;29.50;59.60;;;;;;5029812;28;20443;-63
2022/05/14 13:14:58;;;;;;;1.57;1.50;;;29.60;60.40;;;;;;5022790;28;20560;-63
2022/05/14 13:17:33;;;;;;;2.07;1.77;;;29.80;61.50;;;;;;5030747;28;20798;-63
2022/05/14 13:20:01;;;;;;;2.43;1.67;;;29.80;60.30;;;;;;5031462;28;20465;-63
2022/05/14 13:22:33;;;;;;;3.93;1.60;;;29.80;61.80;;;;;;5030750;28;20473;-64
2022/05/14 13:25:03;;;;;;;2.20;1.70;;;29.90;60.60;;;;;;5030264;28;20494;-63
2022/05/14 13:27:34;;;;;;;1.53;1.33;;;30.00;60.40;;;;;;5014140;28;20471;-63
2022/05/14 13:30:11;;;;;;;1.40;1.20;;;30.10;62.20;;;;;;5030906;28;20474;-63
2022/05/14 13:32:39;;;;;;;2.70;1.53;;;30.30;59.70;;;;;;5029893;28;20565;-63
2022/05/14 13:37:58;;;;;;;1.53;1.50;;;30.70;58.80;;;;;;5014996;28;20512;-63
2022/05/14 13:40:29;;;;;;;1.57;1.50;;;30.60;56.80;;;;;;5012005;28;20956;-63
2022/05/14 13:43:04;;;;;;;1.83;1.50;;;30.40;58.20;;;;;;5028480;28;20548;-63
2022/05/14 13:45:34;;;;;;;1.63;1.57;;;30.30;60.60;;;;;;5030334;28;20482;-63
2022/05/14 13:48:05;;;;;;;2.30;1.60;;;30.50;59.90;;;;;;5031731;28;20952;-63
2022/05/14 13:50:36;;;;;;;1.40;1.37;;;30.60;58.20;;;;;;5014196;28;20462;-63
2022/05/14 13:53:06;;;;;;;2.00;1.60;;;30.40;56.00;;;;;;5014704;28;21015;-63
2022/05/14 13:55:36;;;;;;;1.53;1.50;;;30.20;55.60;;;;;;5032389;28;20451;-63